sensor_id;sensor_type;location;lat;lon;timestamp;P1;durP1;ratioP1;P2;durP2;ratioP2
61527;SDS011;47395;42.032;-8.634;2022-08-20T00:01:05;6.07;;;3.50;;
61527;SDS011;47395;42.032;-8.634;2022-08-20T00:03:08;7.72;;;3.80;;
61527;SDS011;47395;42.032;-8.634;2022-08-20T00:05:18;5.43;;;3.55;;
61527;SDS011;47395;42.032;-8.634;2022-08-20T00:07:23;3.45;;;3.25;;
61527;SDS011;47395;42.032;-8.634;2022-08-20T00:09:24;5.38;;;3.30;;
61527;SDS011;47395;42.032;-8.634;2022-08-20T00:11:25;8.55;;;4.07;;
61527;SDS011;47395;42.032;-8.634;2022-08-20T00:13:30;5.93;;;4.00;;
61527;SDS011;47395;42.032;-8.634;2022-08-20T00:15:35;4.25;;;3.80;;
61527;SDS011;47395;42.032;-8.634;2022-08-20T00:17:38;3.95;;;3.63;;
61527;SDS011;47395;42.032;-8.634;2022-08-20T00:19:40;4.05;;;3.67;;
61527;SDS011;47395;42.032;-8.634;2022-08-20T00:21:41;4.20;;;3.47;;
61527;SDS011;47395;42.032;-8.634;2022-08-20T00:23:43;5.82;;;4.03;;
61527;SDS011;47395;42.032;-8.634;2022-08-20T00:25:45;4.07;;;3.78;;
61527;SDS011;47395;42.032;-8.634;2022-08-20T00:27:47;3.88;;;3.47;;
61527;SDS011;47395;42.032;-8.634;2022-08-20T00:29:48;6.15;;;3.50;;
61527;SDS011;47395;42.032;-8.634;2022-08-20T00:31:49;5.28;;;3.42;;
61527;SDS011;47395;42.032;-8.634;2022-08-20T00:33:51;7.85;;;3.33;;
61527;SDS011;47395;42.032;-8.634;2022-08-20T00:35:54;7.55;;;3.58;;
61527;SDS011;47395;42.032;-8.634;2022-08-20T00:37:56;7.13;;;4.18;;
61527;SDS011;47395;42.032;-8.634;2022-08-20T00:39:57;8.85;;;4.97;;
61527;SDS011;47395;42.032;-8.634;2022-08-20T00:42:01;7.75;;;3.78;;
61527;SDS011;47395;42.032;-8.634;2022-08-20T00:44:07;4.20;;;3.83;;
61527;SDS011;47395;42.032;-8.634;2022-08-20T00:46:20;6.25;;;3.90;;
61527;SDS011;47395;42.032;-8.634;2022-08-20T00:48:27;4.00;;;3.70;;
61527;SDS011;47395;42.032;-8.634;2022-08-20T00:50:33;3.85;;;3.50;;
61527;SDS011;47395;42.032;-8.634;2022-08-20T00:52:36;5.97;;;3.65;;
61527;SDS011;47395;42.032;-8.634;2022-08-20T00:54:42;4.35;;;3.95;;
61527;SDS011;47395;42.032;-8.634;2022-08-20T00:56:47;5.38;;;3.78;;
61527;SDS011;47395;42.032;-8.634;2022-08-20T00:58:50;5.93;;;4.32;;
61527;SDS011;47395;42.032;-8.634;2022-08-20T01:00:53;4.85;;;3.92;;
61527;SDS011;47395;42.032;-8.634;2022-08-20T01:02:55;4.70;;;3.97;;
61527;SDS011;47395;42.032;-8.634;2022-08-20T01:04:56;4.78;;;4.22;;
61527;SDS011;47395;42.032;-8.634;2022-08-20T01:06:58;6.43;;;4.28;;
61527;SDS011;47395;42.032;-8.634;2022-08-20T01:08:59;5.90;;;4.32;;
61527;SDS011;47395;42.032;-8.634;2022-08-20T01:11:01;6.03;;;3.83;;
61527;SDS011;47395;42.032;-8.634;2022-08-20T01:13:11;5.70;;;4.03;;
61527;SDS011;47395;42.032;-8.634;2022-08-20T01:15:16;8.10;;;4.00;;
61527;SDS011;47395;42.032;-8.634;2022-08-20T01:17:22;5.38;;;4.03;;
61527;SDS011;47395;42.032;-8.634;2022-08-20T01:19:44;9.32;;;4.95;;
61527;SDS011;47395;42.032;-8.634;2022-08-20T01:21:48;4.22;;;3.90;;
61527;SDS011;47395;42.032;-8.634;2022-08-20T01:26:16;4.30;;;3.90;;
61527;SDS011;47395;42.032;-8.634;2022-08-20T01:28:24;4.90;;;4.05;;
61527;SDS011;47395;42.032;-8.634;2022-08-20T01:30:28;4.95;;;4.25;;
61527;SDS011;47395;42.032;-8.634;2022-08-20T01:32:32;4.43;;;4.03;;
61527;SDS011;47395;42.032;-8.634;2022-08-20T01:34:33;5.32;;;4.28;;
61527;SDS011;47395;42.032;-8.634;2022-08-20T01:36:36;6.93;;;3.80;;
61527;SDS011;47395;42.032;-8.634;2022-08-20T01:38:43;6.80;;;3.65;;
61527;SDS011;47395;42.032;-8.634;2022-08-20T01:42:49;6.43;;;3.47;;
61527;SDS011;47395;42.032;-8.634;2022-08-20T01:44:50;3.40;;;3.20;;
61527;SDS011;47395;42.032;-8.634;2022-08-20T01:46:52;3.30;;;3.10;;
61527;SDS011;47395;42.032;-8.634;2022-08-20T01:48:57;3.55;;;3.25;;
61527;SDS011;47395;42.032;-8.634;2022-08-20T01:51:03;4.47;;;2.97;;
61527;SDS011;47395;42.032;-8.634;2022-08-20T01:53:15;3.60;;;3.28;;
61527;SDS011;47395;42.032;-8.634;2022-08-20T01:55:20;3.65;;;3.13;;
61527;SDS011;47395;42.032;-8.634;2022-08-20T01:57:23;3.47;;;3.10;;
61527;SDS011;47395;42.032;-8.634;2022-08-20T01:59:26;4.10;;;3.55;;
61527;SDS011;47395;42.032;-8.634;2022-08-20T02:01:29;3.42;;;3.13;;
61527;SDS011;47395;42.032;-8.634;2022-08-20T02:03:33;6.60;;;3.53;;
61527;SDS011;47395;42.032;-8.634;2022-08-20T02:05:34;3.30;;;3.00;;
61527;SDS011;47395;42.032;-8.634;2022-08-20T02:07:35;3.75;;;3.50;;
61527;SDS011;47395;42.032;-8.634;2022-08-20T02:09:37;3.97;;;3.50;;
61527;SDS011;47395;42.032;-8.634;2022-08-20T02:11:42;4.57;;;3.53;;
61527;SDS011;47395;42.032;-8.634;2022-08-20T02:13:43;5.22;;;3.30;;
61527;SDS011;47395;42.032;-8.634;2022-08-20T02:15:44;3.38;;;3.25;;
61527;SDS011;47395;42.032;-8.634;2022-08-20T02:17:45;3.80;;;3.50;;
61527;SDS011;47395;42.032;-8.634;2022-08-20T02:19:49;6.47;;;3.65;;
61527;SDS011;47395;42.032;-8.634;2022-08-20T02:21:54;3.53;;;3.30;;
61527;SDS011;47395;42.032;-8.634;2022-08-20T02:23:58;3.50;;;3.20;;
61527;SDS011;47395;42.032;-8.634;2022-08-20T02:25:59;3.70;;;3.40;;
61527;SDS011;47395;42.032;-8.634;2022-08-20T02:28:01;3.75;;;3.45;;
61527;SDS011;47395;42.032;-8.634;2022-08-20T02:30:09;8.48;;;3.42;;
61527;SDS011;47395;42.032;-8.634;2022-08-20T02:32:17;4.90;;;3.70;;
61527;SDS011;47395;42.032;-8.634;2022-08-20T02:34:18;7.95;;;4.03;;
61527;SDS011;47395;42.032;-8.634;2022-08-20T02:36:19;5.47;;;3.65;;
61527;SDS011;47395;42.032;-8.634;2022-08-20T02:38:22;3.30;;;3.03;;
61527;SDS011;47395;42.032;-8.634;2022-08-20T02:40:24;6.07;;;3.50;;
61527;SDS011;47395;42.032;-8.634;2022-08-20T02:42:27;5.30;;;3.72;;
61527;SDS011;47395;42.032;-8.634;2022-08-20T02:44:28;9.05;;;3.40;;
61527;SDS011;47395;42.032;-8.634;2022-08-20T02:46:30;3.70;;;3.40;;
61527;SDS011;47395;42.032;-8.634;2022-08-20T02:48:32;5.15;;;3.53;;
61527;SDS011;47395;42.032;-8.634;2022-08-20T02:50:33;3.60;;;3.30;;
61527;SDS011;47395;42.032;-8.634;2022-08-20T02:52:34;7.22;;;3.55;;
61527;SDS011;47395;42.032;-8.634;2022-08-20T02:54:35;4.15;;;3.78;;
61527;SDS011;47395;42.032;-8.634;2022-08-20T02:56:37;3.70;;;3.42;;
61527;SDS011;47395;42.032;-8.634;2022-08-20T02:58:39;4.20;;;3.70;;
61527;SDS011;47395;42.032;-8.634;2022-08-20T03:00:40;3.83;;;3.53;;
61527;SDS011;47395;42.032;-8.634;2022-08-20T03:02:42;3.78;;;3.47;;
61527;SDS011;47395;42.032;-8.634;2022-08-20T03:04:44;7.35;;;3.78;;
61527;SDS011;47395;42.032;-8.634;2022-08-20T03:06:45;3.17;;;2.75;;
61527;SDS011;47395;42.032;-8.634;2022-08-20T03:08:46;3.42;;;3.22;;
61527;SDS011;47395;42.032;-8.634;2022-08-20T03:10:48;4.95;;;3.60;;
61527;SDS011;47395;42.032;-8.634;2022-08-20T03:12:50;4.65;;;2.97;;
61527;SDS011;47395;42.032;-8.634;2022-08-20T03:14:52;4.38;;;3.30;;
61527;SDS011;47395;42.032;-8.634;2022-08-20T03:16:53;4.22;;;3.25;;
61527;SDS011;47395;42.032;-8.634;2022-08-20T03:18:54;4.32;;;3.20;;
61527;SDS011;47395;42.032;-8.634;2022-08-20T03:20:56;4.55;;;3.63;;
61527;SDS011;47395;42.032;-8.634;2022-08-20T03:22:57;3.65;;;3.35;;
61527;SDS011;47395;42.032;-8.634;2022-08-20T03:24:58;5.03;;;3.38;;
61527;SDS011;47395;42.032;-8.634;2022-08-20T03:26:59;8.20;;;3.40;;
61527;SDS011;47395;42.032;-8.634;2022-08-20T03:29:00;4.20;;;3.83;;
61527;SDS011;47395;42.032;-8.634;2022-08-20T03:31:02;5.72;;;3.75;;
61527;SDS011;47395;42.032;-8.634;2022-08-20T03:33:04;5.70;;;3.78;;
61527;SDS011;47395;42.032;-8.634;2022-08-20T03:35:07;3.85;;;3.50;;
61527;SDS011;47395;42.032;-8.634;2022-08-20T03:37:10;3.28;;;3.08;;
61527;SDS011;47395;42.032;-8.634;2022-08-20T03:39:12;5.78;;;3.58;;
61527;SDS011;47395;42.032;-8.634;2022-08-20T03:41:13;3.60;;;3.40;;
61527;SDS011;47395;42.032;-8.634;2022-08-20T03:43:14;4.78;;;3.30;;
61527;SDS011;47395;42.032;-8.634;2022-08-20T03:45:16;3.65;;;3.35;;
61527;SDS011;47395;42.032;-8.634;2022-08-20T03:47:19;9.15;;;3.60;;
61527;SDS011;47395;42.032;-8.634;2022-08-20T03:49:23;3.60;;;3.40;;
61527;SDS011;47395;42.032;-8.634;2022-08-20T03:51:28;3.13;;;3.00;;
61527;SDS011;47395;42.032;-8.634;2022-08-20T03:53:30;3.53;;;3.22;;
61527;SDS011;47395;42.032;-8.634;2022-08-20T03:55:31;3.88;;;3.20;;
61527;SDS011;47395;42.032;-8.634;2022-08-20T03:57:32;4.20;;;3.28;;
61527;SDS011;47395;42.032;-8.634;2022-08-20T03:59:35;3.33;;;3.13;;
61527;SDS011;47395;42.032;-8.634;2022-08-20T04:03:46;4.85;;;3.45;;
61527;SDS011;47395;42.032;-8.634;2022-08-20T04:05:47;4.95;;;3.22;;
61527;SDS011;47395;42.032;-8.634;2022-08-20T04:07:48;3.60;;;3.30;;
61527;SDS011;47395;42.032;-8.634;2022-08-20T04:09:56;3.85;;;3.40;;
61527;SDS011;47395;42.032;-8.634;2022-08-20T04:11:57;3.20;;;3.00;;
61527;SDS011;47395;42.032;-8.634;2022-08-20T04:13:59;4.32;;;3.55;;
61527;SDS011;47395;42.032;-8.634;2022-08-20T04:16:01;12.35;;;4.40;;
61527;SDS011;47395;42.032;-8.634;2022-08-20T04:18:07;8.15;;;3.55;;
61527;SDS011;47395;42.032;-8.634;2022-08-20T04:20:11;7.00;;;3.47;;
61527;SDS011;47395;42.032;-8.634;2022-08-20T04:22:13;5.63;;;3.38;;
61527;SDS011;47395;42.032;-8.634;2022-08-20T04:24:14;4.68;;;3.90;;
61527;SDS011;47395;42.032;-8.634;2022-08-20T04:26:15;4.35;;;3.42;;
61527;SDS011;47395;42.032;-8.634;2022-08-20T04:28:17;7.70;;;3.42;;
61527;SDS011;47395;42.032;-8.634;2022-08-20T04:30:24;4.18;;;3.60;;
61527;SDS011;47395;42.032;-8.634;2022-08-20T04:32:26;5.72;;;3.92;;
61527;SDS011;47395;42.032;-8.634;2022-08-20T04:34:27;5.68;;;3.60;;
61527;SDS011;47395;42.032;-8.634;2022-08-20T04:36:29;5.30;;;3.75;;
61527;SDS011;47395;42.032;-8.634;2022-08-20T04:38:30;4.07;;;3.60;;
61527;SDS011;47395;42.032;-8.634;2022-08-20T04:40:31;3.80;;;3.60;;
61527;SDS011;47395;42.032;-8.634;2022-08-20T04:42:50;4.13;;;3.73;;
61527;SDS011;47395;42.032;-8.634;2022-08-20T04:44:51;4.57;;;3.88;;
61527;SDS011;47395;42.032;-8.634;2022-08-20T04:46:52;3.95;;;3.60;;
61527;SDS011;47395;42.032;-8.634;2022-08-20T04:48:53;3.67;;;3.47;;
61527;SDS011;47395;42.032;-8.634;2022-08-20T04:50:55;3.55;;;3.35;;
61527;SDS011;47395;42.032;-8.634;2022-08-20T04:52:57;4.28;;;3.70;;
61527;SDS011;47395;42.032;-8.634;2022-08-20T04:54:58;4.75;;;3.42;;
61527;SDS011;47395;42.032;-8.634;2022-08-20T04:56:59;4.07;;;3.72;;
61527;SDS011;47395;42.032;-8.634;2022-08-20T04:59:01;4.00;;;3.70;;
61527;SDS011;47395;42.032;-8.634;2022-08-20T05:01:03;7.82;;;3.70;;
61527;SDS011;47395;42.032;-8.634;2022-08-20T05:03:08;3.60;;;3.40;;
61527;SDS011;47395;42.032;-8.634;2022-08-20T05:05:10;3.30;;;3.10;;
61527;SDS011;47395;42.032;-8.634;2022-08-20T05:07:12;5.97;;;3.55;;
61527;SDS011;47395;42.032;-8.634;2022-08-20T05:09:14;3.80;;;3.50;;
61527;SDS011;47395;42.032;-8.634;2022-08-20T05:11:15;3.50;;;3.20;;
61527;SDS011;47395;42.032;-8.634;2022-08-20T05:13:16;4.30;;;3.80;;
61527;SDS011;47395;42.032;-8.634;2022-08-20T05:15:18;3.78;;;3.47;;
61527;SDS011;47395;42.032;-8.634;2022-08-20T05:17:19;6.70;;;4.07;;
61527;SDS011;47395;42.032;-8.634;2022-08-20T05:19:20;8.93;;;3.58;;
61527;SDS011;47395;42.032;-8.634;2022-08-20T05:21:21;9.07;;;3.75;;
61527;SDS011;47395;42.032;-8.634;2022-08-20T05:23:22;4.25;;;3.88;;
61527;SDS011;47395;42.032;-8.634;2022-08-20T05:25:23;5.13;;;3.63;;
61527;SDS011;47395;42.032;-8.634;2022-08-20T05:27:24;6.97;;;4.07;;
61527;SDS011;47395;42.032;-8.634;2022-08-20T05:29:28;3.60;;;3.40;;
61527;SDS011;47395;42.032;-8.634;2022-08-20T05:31:29;4.10;;;3.70;;
61527;SDS011;47395;42.032;-8.634;2022-08-20T05:33:30;5.07;;;3.60;;
61527;SDS011;47395;42.032;-8.634;2022-08-20T05:35:31;4.07;;;3.78;;
61527;SDS011;47395;42.032;-8.634;2022-08-20T05:37:35;3.97;;;3.65;;
61527;SDS011;47395;42.032;-8.634;2022-08-20T05:39:37;8.23;;;3.92;;
61527;SDS011;47395;42.032;-8.634;2022-08-20T05:41:38;5.95;;;4.13;;
61527;SDS011;47395;42.032;-8.634;2022-08-20T05:43:39;6.25;;;3.72;;
61527;SDS011;47395;42.032;-8.634;2022-08-20T05:45:40;4.00;;;3.70;;
61527;SDS011;47395;42.032;-8.634;2022-08-20T05:47:42;4.05;;;3.78;;
61527;SDS011;47395;42.032;-8.634;2022-08-20T05:49:43;4.07;;;3.63;;
61527;SDS011;47395;42.032;-8.634;2022-08-20T05:51:46;4.00;;;3.70;;
61527;SDS011;47395;42.032;-8.634;2022-08-20T05:53:47;6.95;;;4.43;;
61527;SDS011;47395;42.032;-8.634;2022-08-20T05:55:48;4.20;;;3.55;;
61527;SDS011;47395;42.032;-8.634;2022-08-20T05:57:49;3.83;;;3.55;;
61527;SDS011;47395;42.032;-8.634;2022-08-20T06:00:04;3.63;;;3.40;;
61527;SDS011;47395;42.032;-8.634;2022-08-20T06:02:11;4.25;;;3.95;;
61527;SDS011;47395;42.032;-8.634;2022-08-20T06:04:31;4.05;;;3.70;;
61527;SDS011;47395;42.032;-8.634;2022-08-20T06:06:33;4.43;;;3.58;;
61527;SDS011;47395;42.032;-8.634;2022-08-20T06:08:34;4.45;;;4.15;;
61527;SDS011;47395;42.032;-8.634;2022-08-20T06:10:35;4.05;;;3.75;;
61527;SDS011;47395;42.032;-8.634;2022-08-20T06:12:37;4.20;;;3.90;;
61527;SDS011;47395;42.032;-8.634;2022-08-20T06:14:38;5.55;;;4.03;;
61527;SDS011;47395;42.032;-8.634;2022-08-20T06:16:39;6.18;;;3.60;;
61527;SDS011;47395;42.032;-8.634;2022-08-20T06:18:40;7.68;;;3.97;;
61527;SDS011;47395;42.032;-8.634;2022-08-20T06:20:41;4.82;;;3.83;;
61527;SDS011;47395;42.032;-8.634;2022-08-20T06:22:42;3.92;;;3.63;;
61527;SDS011;47395;42.032;-8.634;2022-08-20T06:24:44;3.72;;;3.40;;
61527;SDS011;47395;42.032;-8.634;2022-08-20T06:26:45;4.00;;;3.80;;
61527;SDS011;47395;42.032;-8.634;2022-08-20T06:28:46;4.15;;;3.75;;
61527;SDS011;47395;42.032;-8.634;2022-08-20T06:30:46;3.90;;;3.60;;
61527;SDS011;47395;42.032;-8.634;2022-08-20T06:32:47;12.10;;;4.00;;
61527;SDS011;47395;42.032;-8.634;2022-08-20T06:34:50;4.78;;;3.40;;
61527;SDS011;47395;42.032;-8.634;2022-08-20T06:36:50;6.70;;;3.58;;
61527;SDS011;47395;42.032;-8.634;2022-08-20T06:38:52;12.82;;;3.75;;
61527;SDS011;47395;42.032;-8.634;2022-08-20T06:40:54;6.97;;;3.28;;
61527;SDS011;47395;42.032;-8.634;2022-08-20T06:42:55;3.58;;;3.33;;
61527;SDS011;47395;42.032;-8.634;2022-08-20T06:44:56;3.28;;;2.90;;
61527;SDS011;47395;42.032;-8.634;2022-08-20T06:46:59;3.95;;;3.55;;
61527;SDS011;47395;42.032;-8.634;2022-08-20T06:49:06;3.40;;;3.00;;
61527;SDS011;47395;42.032;-8.634;2022-08-20T06:51:07;7.45;;;3.03;;
61527;SDS011;47395;42.032;-8.634;2022-08-20T06:53:10;3.58;;;3.00;;
61527;SDS011;47395;42.032;-8.634;2022-08-20T06:55:13;3.25;;;3.05;;
61527;SDS011;47395;42.032;-8.634;2022-08-20T06:57:15;4.88;;;3.38;;
61527;SDS011;47395;42.032;-8.634;2022-08-20T06:59:16;3.65;;;3.33;;
61527;SDS011;47395;42.032;-8.634;2022-08-20T07:01:17;3.75;;;3.30;;
61527;SDS011;47395;42.032;-8.634;2022-08-20T07:03:20;3.70;;;3.40;;
61527;SDS011;47395;42.032;-8.634;2022-08-20T07:05:21;3.00;;;2.80;;
61527;SDS011;47395;42.032;-8.634;2022-08-20T07:07:21;2.90;;;2.70;;
61527;SDS011;47395;42.032;-8.634;2022-08-20T07:09:24;3.28;;;3.00;;
61527;SDS011;47395;42.032;-8.634;2022-08-20T07:11:25;3.47;;;2.83;;
61527;SDS011;47395;42.032;-8.634;2022-08-20T07:13:27;5.05;;;2.75;;
61527;SDS011;47395;42.032;-8.634;2022-08-20T07:15:28;3.10;;;2.83;;
61527;SDS011;47395;42.032;-8.634;2022-08-20T07:17:29;2.97;;;2.60;;
61527;SDS011;47395;42.032;-8.634;2022-08-20T07:19:30;3.53;;;2.30;;
61527;SDS011;47395;42.032;-8.634;2022-08-20T07:21:31;3.00;;;2.70;;
61527;SDS011;47395;42.032;-8.634;2022-08-20T07:23:32;3.65;;;2.70;;
61527;SDS011;47395;42.032;-8.634;2022-08-20T07:25:33;3.63;;;3.05;;
61527;SDS011;47395;42.032;-8.634;2022-08-20T07:27:34;3.83;;;3.53;;
61527;SDS011;47395;42.032;-8.634;2022-08-20T07:29:35;4.25;;;3.88;;
61527;SDS011;47395;42.032;-8.634;2022-08-20T07:31:54;3.90;;;2.87;;
61527;SDS011;47395;42.032;-8.634;2022-08-20T07:34:14;4.43;;;2.55;;
61527;SDS011;47395;42.032;-8.634;2022-08-20T07:36:15;5.10;;;2.78;;
61527;SDS011;47395;42.032;-8.634;2022-08-20T07:38:18;4.25;;;3.83;;
61527;SDS011;47395;42.032;-8.634;2022-08-20T07:40:28;2.92;;;2.72;;
61527;SDS011;47395;42.032;-8.634;2022-08-20T07:42:30;7.28;;;2.60;;
61527;SDS011;47395;42.032;-8.634;2022-08-20T07:44:31;2.88;;;2.67;;
61527;SDS011;47395;42.032;-8.634;2022-08-20T07:46:33;12.10;;;2.80;;
61527;SDS011;47395;42.032;-8.634;2022-08-20T07:48:34;3.58;;;2.22;;
61527;SDS011;47395;42.032;-8.634;2022-08-20T07:50:39;3.45;;;2.65;;
61527;SDS011;47395;42.032;-8.634;2022-08-20T07:52:41;2.92;;;2.72;;
61527;SDS011;47395;42.032;-8.634;2022-08-20T07:54:41;3.92;;;2.90;;
61527;SDS011;47395;42.032;-8.634;2022-08-20T07:56:43;4.55;;;2.65;;
61527;SDS011;47395;42.032;-8.634;2022-08-20T07:58:45;2.55;;;2.45;;
61527;SDS011;47395;42.032;-8.634;2022-08-20T08:00:49;3.10;;;2.40;;
61527;SDS011;47395;42.032;-8.634;2022-08-20T08:02:51;3.20;;;2.60;;
61527;SDS011;47395;42.032;-8.634;2022-08-20T08:04:52;2.20;;;2.08;;
61527;SDS011;47395;42.032;-8.634;2022-08-20T08:06:53;7.13;;;2.65;;
61527;SDS011;47395;42.032;-8.634;2022-08-20T08:09:07;3.50;;;2.10;;
61527;SDS011;47395;42.032;-8.634;2022-08-20T08:11:12;4.30;;;2.75;;
61527;SDS011;47395;42.032;-8.634;2022-08-20T08:13:13;3.58;;;2.22;;
61527;SDS011;47395;42.032;-8.634;2022-08-20T08:15:15;3.28;;;2.40;;
61527;SDS011;47395;42.032;-8.634;2022-08-20T08:17:21;3.42;;;2.45;;
61527;SDS011;47395;42.032;-8.634;2022-08-20T08:19:23;2.30;;;2.20;;
61527;SDS011;47395;42.032;-8.634;2022-08-20T08:21:26;3.40;;;2.60;;
61527;SDS011;47395;42.032;-8.634;2022-08-20T08:23:29;3.38;;;2.50;;
61527;SDS011;47395;42.032;-8.634;2022-08-20T08:25:30;2.35;;;2.25;;
61527;SDS011;47395;42.032;-8.634;2022-08-20T08:27:32;5.28;;;2.40;;
61527;SDS011;47395;42.032;-8.634;2022-08-20T08:29:34;2.92;;;2.28;;
61527;SDS011;47395;42.032;-8.634;2022-08-20T08:31:35;2.65;;;2.45;;
61527;SDS011;47395;42.032;-8.634;2022-08-20T08:33:37;6.40;;;2.42;;
61527;SDS011;47395;42.032;-8.634;2022-08-20T08:35:39;4.03;;;2.50;;
61527;SDS011;47395;42.032;-8.634;2022-08-20T08:37:45;2.50;;;2.35;;
61527;SDS011;47395;42.032;-8.634;2022-08-20T08:39:46;3.85;;;2.30;;
61527;SDS011;47395;42.032;-8.634;2022-08-20T08:41:47;2.45;;;2.35;;
61527;SDS011;47395;42.032;-8.634;2022-08-20T08:43:50;11.30;;;2.67;;
61527;SDS011;47395;42.032;-8.634;2022-08-20T08:45:59;3.95;;;2.33;;
61527;SDS011;47395;42.032;-8.634;2022-08-20T08:48:04;3.20;;;2.10;;
61527;SDS011;47395;42.032;-8.634;2022-08-20T08:50:05;2.83;;;2.42;;
61527;SDS011;47395;42.032;-8.634;2022-08-20T08:52:31;3.30;;;1.98;;
61527;SDS011;47395;42.032;-8.634;2022-08-20T08:54:32;3.33;;;2.25;;
61527;SDS011;47395;42.032;-8.634;2022-08-20T08:56:34;5.15;;;2.40;;
61527;SDS011;47395;42.032;-8.634;2022-08-20T08:58:35;5.63;;;2.33;;
61527;SDS011;47395;42.032;-8.634;2022-08-20T09:00:36;5.28;;;2.30;;
61527;SDS011;47395;42.032;-8.634;2022-08-20T09:02:37;6.28;;;2.25;;
61527;SDS011;47395;42.032;-8.634;2022-08-20T09:04:38;2.40;;;2.20;;
61527;SDS011;47395;42.032;-8.634;2022-08-20T09:06:40;10.07;;;2.20;;
61527;SDS011;47395;42.032;-8.634;2022-08-20T09:08:46;2.50;;;1.85;;
61527;SDS011;47395;42.032;-8.634;2022-08-20T09:11:01;3.05;;;2.10;;
61527;SDS011;47395;42.032;-8.634;2022-08-20T09:15:06;1.95;;;1.80;;
61527;SDS011;47395;42.032;-8.634;2022-08-20T09:17:07;3.28;;;1.98;;
61527;SDS011;47395;42.032;-8.634;2022-08-20T09:19:08;2.38;;;1.90;;
61527;SDS011;47395;42.032;-8.634;2022-08-20T09:21:09;4.25;;;1.90;;
61527;SDS011;47395;42.032;-8.634;2022-08-20T09:23:10;2.03;;;1.80;;
61527;SDS011;47395;42.032;-8.634;2022-08-20T09:25:11;4.57;;;1.88;;
61527;SDS011;47395;42.032;-8.634;2022-08-20T09:27:12;2.05;;;1.92;;
61527;SDS011;47395;42.032;-8.634;2022-08-20T09:29:13;6.15;;;2.20;;
61527;SDS011;47395;42.032;-8.634;2022-08-20T09:31:14;1.70;;;1.60;;
61527;SDS011;47395;42.032;-8.634;2022-08-20T09:33:15;3.20;;;1.80;;
61527;SDS011;47395;42.032;-8.634;2022-08-20T09:35:16;2.25;;;1.95;;
61527;SDS011;47395;42.032;-8.634;2022-08-20T09:37:17;4.57;;;1.92;;
61527;SDS011;47395;42.032;-8.634;2022-08-20T09:39:18;2.88;;;1.67;;
61527;SDS011;47395;42.032;-8.634;2022-08-20T09:41:19;5.18;;;1.85;;
61527;SDS011;47395;42.032;-8.634;2022-08-20T09:43:20;2.95;;;2.00;;
61527;SDS011;47395;42.032;-8.634;2022-08-20T09:45:21;6.72;;;2.20;;
61527;SDS011;47395;42.032;-8.634;2022-08-20T09:47:22;4.15;;;2.28;;
61527;SDS011;47395;42.032;-8.634;2022-08-20T09:49:23;6.60;;;1.92;;
61527;SDS011;47395;42.032;-8.634;2022-08-20T09:51:24;1.90;;;1.75;;
61527;SDS011;47395;42.032;-8.634;2022-08-20T09:53:25;2.13;;;1.77;;
61527;SDS011;47395;42.032;-8.634;2022-08-20T09:55:43;3.47;;;2.20;;
61527;SDS011;47395;42.032;-8.634;2022-08-20T09:57:45;3.47;;;2.00;;
61527;SDS011;47395;42.032;-8.634;2022-08-20T09:59:50;5.10;;;1.88;;
61527;SDS011;47395;42.032;-8.634;2022-08-20T10:01:53;5.45;;;1.90;;
61527;SDS011;47395;42.032;-8.634;2022-08-20T10:03:54;1.80;;;1.70;;
61527;SDS011;47395;42.032;-8.634;2022-08-20T10:05:55;3.35;;;1.98;;
61527;SDS011;47395;42.032;-8.634;2022-08-20T10:07:56;8.43;;;2.00;;
61527;SDS011;47395;42.032;-8.634;2022-08-20T10:09:57;1.95;;;1.85;;
61527;SDS011;47395;42.032;-8.634;2022-08-20T10:11:58;1.80;;;1.70;;
61527;SDS011;47395;42.032;-8.634;2022-08-20T10:13:58;3.75;;;1.73;;
61527;SDS011;47395;42.032;-8.634;2022-08-20T10:15:59;1.98;;;1.60;;
61527;SDS011;47395;42.032;-8.634;2022-08-20T10:18:03;1.80;;;1.70;;
61527;SDS011;47395;42.032;-8.634;2022-08-20T10:20:07;2.40;;;1.65;;
61527;SDS011;47395;42.032;-8.634;2022-08-20T10:22:11;1.95;;;1.70;;
61527;SDS011;47395;42.032;-8.634;2022-08-20T10:24:12;2.05;;;1.70;;
61527;SDS011;47395;42.032;-8.634;2022-08-20T10:26:12;4.93;;;1.83;;
61527;SDS011;47395;42.032;-8.634;2022-08-20T10:28:14;2.92;;;2.10;;
61527;SDS011;47395;42.032;-8.634;2022-08-20T10:30:15;1.65;;;1.55;;
61527;SDS011;47395;42.032;-8.634;2022-08-20T10:32:16;2.65;;;1.50;;
61527;SDS011;47395;42.032;-8.634;2022-08-20T10:34:17;2.05;;;1.60;;
61527;SDS011;47395;42.032;-8.634;2022-08-20T10:36:18;1.48;;;1.48;;
61527;SDS011;47395;42.032;-8.634;2022-08-20T10:38:19;2.45;;;1.70;;
61527;SDS011;47395;42.032;-8.634;2022-08-20T10:40:20;1.50;;;1.40;;
61527;SDS011;47395;42.032;-8.634;2022-08-20T10:42:21;1.60;;;1.50;;
61527;SDS011;47395;42.032;-8.634;2022-08-20T10:44:22;2.22;;;1.90;;
61527;SDS011;47395;42.032;-8.634;2022-08-20T10:46:23;1.85;;;1.75;;
61527;SDS011;47395;42.032;-8.634;2022-08-20T10:48:24;1.70;;;1.60;;
61527;SDS011;47395;42.032;-8.634;2022-08-20T10:50:25;2.85;;;2.58;;
61527;SDS011;47395;42.032;-8.634;2022-08-20T10:52:27;15.15;;;12.10;;
61527;SDS011;47395;42.032;-8.634;2022-08-20T10:54:28;4.70;;;2.60;;
61527;SDS011;47395;42.032;-8.634;2022-08-20T10:56:29;3.03;;;1.90;;
61527;SDS011;47395;42.032;-8.634;2022-08-20T10:58:29;3.65;;;1.98;;
61527;SDS011;47395;42.032;-8.634;2022-08-20T11:00:30;1.58;;;1.50;;
61527;SDS011;47395;42.032;-8.634;2022-08-20T11:02:31;2.85;;;1.80;;
61527;SDS011;47395;42.032;-8.634;2022-08-20T11:04:32;6.28;;;1.60;;
61527;SDS011;47395;42.032;-8.634;2022-08-20T11:06:33;3.40;;;2.22;;
61527;SDS011;47395;42.032;-8.634;2022-08-20T11:08:34;5.05;;;2.17;;
61527;SDS011;47395;42.032;-8.634;2022-08-20T11:10:35;2.80;;;1.73;;
61527;SDS011;47395;42.032;-8.634;2022-08-20T11:12:37;3.72;;;2.25;;
61527;SDS011;47395;42.032;-8.634;2022-08-20T11:14:39;3.28;;;1.98;;
61527;SDS011;47395;42.032;-8.634;2022-08-20T11:16:40;3.22;;;1.75;;
61527;SDS011;47395;42.032;-8.634;2022-08-20T11:18:41;2.85;;;1.77;;
61527;SDS011;47395;42.032;-8.634;2022-08-20T11:20:41;4.63;;;1.50;;
61527;SDS011;47395;42.032;-8.634;2022-08-20T11:22:42;1.85;;;1.60;;
61527;SDS011;47395;42.032;-8.634;2022-08-20T11:24:43;4.03;;;1.30;;
61527;SDS011;47395;42.032;-8.634;2022-08-20T11:26:45;1.50;;;1.20;;
61527;SDS011;47395;42.032;-8.634;2022-08-20T11:28:47;1.60;;;1.40;;
61527;SDS011;47395;42.032;-8.634;2022-08-20T11:30:48;1.92;;;1.40;;
61527;SDS011;47395;42.032;-8.634;2022-08-20T11:32:49;1.23;;;1.13;;
61527;SDS011;47395;42.032;-8.634;2022-08-20T11:34:51;2.08;;;1.23;;
61527;SDS011;47395;42.032;-8.634;2022-08-20T11:36:52;1.50;;;1.30;;
61527;SDS011;47395;42.032;-8.634;2022-08-20T11:38:53;2.20;;;1.30;;
61527;SDS011;47395;42.032;-8.634;2022-08-20T11:40:54;1.17;;;1.08;;
61527;SDS011;47395;42.032;-8.634;2022-08-20T11:42:55;1.42;;;1.30;;
61527;SDS011;47395;42.032;-8.634;2022-08-20T11:44:55;1.35;;;1.25;;
61527;SDS011;47395;42.032;-8.634;2022-08-20T11:47:00;1.80;;;1.20;;
61527;SDS011;47395;42.032;-8.634;2022-08-20T11:49:03;1.20;;;1.20;;
61527;SDS011;47395;42.032;-8.634;2022-08-20T11:51:04;5.10;;;1.40;;
61527;SDS011;47395;42.032;-8.634;2022-08-20T11:53:05;3.60;;;1.33;;
61527;SDS011;47395;42.032;-8.634;2022-08-20T11:55:07;1.13;;;1.10;;
61527;SDS011;47395;42.032;-8.634;2022-08-20T11:57:10;2.60;;;1.30;;
61527;SDS011;47395;42.032;-8.634;2022-08-20T11:59:11;1.42;;;1.33;;
61527;SDS011;47395;42.032;-8.634;2022-08-20T12:01:11;1.83;;;1.33;;
61527;SDS011;47395;42.032;-8.634;2022-08-20T12:03:13;3.97;;;1.40;;
61527;SDS011;47395;42.032;-8.634;2022-08-20T12:05:14;3.53;;;1.38;;
61527;SDS011;47395;42.032;-8.634;2022-08-20T12:07:16;2.20;;;1.23;;
61527;SDS011;47395;42.032;-8.634;2022-08-20T12:09:20;2.30;;;1.48;;
61527;SDS011;47395;42.032;-8.634;2022-08-20T12:11:21;3.78;;;1.15;;
61527;SDS011;47395;42.032;-8.634;2022-08-20T12:13:22;7.53;;;1.67;;
61527;SDS011;47395;42.032;-8.634;2022-08-20T12:15:23;1.60;;;1.30;;